Portada
METAR-TAF:

METAR-TAF

Aeroports :

Granada, Espanya

latitud: 37-11N, longitud: 003-47W, altitud: 567 m

Observació

L'informe es va fer fa 32 minuts, a les 07:30 UTC
Vent 3 kt del Nord-Oest, variant entre Oest i Nord
Temperatura 22°C
Humitat 65%
Pressió 1018 hPa
Visibilitat 10 km o més
sense núvols per sota de 1500 mi sense presència de cumulonimbus.

METAR: LEGR 250730Z 32003KT 280V350 CAVOK 22/15 Q1018

Hora: 10:02 (08:02 UTC)

Pronòstic

L'informe es va fer fa 6 hores i 2 minuts, a les 02:00 UTC
Pronòstic vàlid del 25 a les 03 UTC al 26 a les 03 UTC
Vent 5 kt del Sud/Sud-Oest
Visibilitat 10 km o més
sense núvols per sota de 1500 mi sense presència de cumulonimbus.
Probabilitat 40% :
Temporalment
l' 25 a les 12 UTC al 25 a les 20 UTC
Vent 15 kt del Oest amb ràfegues de 25 kt

TAF: LEGR 250200Z 2503/2603 20005KT CAVOK TX35/2515Z TN20/2505Z PROB40 TEMPO 2512/2520 27015G25KT

Observacions i pronòstics meteorològics de més de 4000 aeroports (METAR i TAF).

Les estacions disponibles són els punts grocs i vermells al mapa.

Posi el ratolí al punt desitjat per veure el nom de l'estació.

Feu clic per veure les observacions i els pronòstics meteorològics.

Per canviar el mapa: feu clic els botons verds amb una creu de color negre per apropar; al botó verd amb un guió per allunyar la imatge; o en les fletxes verdes per a mapes adjacents.


METAR-TAF: